John Wayne Airport-Orange County Airport Santa Ana US
ICAO: KSNA
IATA: SNA
Category: Large
Scheduled Services: Yes

Elevation: 56 ft
TransAlt. 18000 ft.

Airport Communications:
SOCAL APP:38.02
SOCAL APP:121.3
ATIS:126
CLNC DEL:118
CTAF:126.8
SOCAL DEP:128.1
GND:120.8
RIVERSIDE RDO:122.45
TWR:119.9
UNICOM:122.95

KSNA Zoom In..

If you have problems with the map follow the link
https://www.worldairports.se/pages/airport.php?
ICAO=KSNA

Runways:

(A) RW 01L length 5701 ft width 150 ft
---- / hdg 14

(B) RW 01R length 2887 ft width 75 ft
---- / hdg 14

(C) RW 19L length 2887 ft width 75 ft
---- / hdg 194

(D) RW 19R length 5701 ft width 150 ft
ILS 111.75 / hdg 194

Location; KSNA
Day. 08 / Time. 12.44 Zulu
* Altimeter: 30.05
* Temperature: 17° c. 62.6°f.
* Wind from: 000° Speed 00 kn.
Dewpoint: 14° c.
Visibility: 10 Statute Miles.
Clouds: Few 700 ft.
Clouds: Overcast 2900 ft.

KSNA 081244Z AUTO 00000KT 10SM FEW007 OVC029 17/14 A3005 RMK AO2 T01720144


Wind - Calm.

 
 
jpsmedia worldairports.se 2019   terms of use